Palmali Voyager — 9HXP7 — position and weather

sailwx.info

Track history (hours):
 
Tides and Currents Weather Stations Pressure Air Temp Water Temp Dewpoint Dewpoint Depression Visibility Wind Speed Wind Dir Waves Ship Positions

Palmali Voyager

Last reported at 2018-Jan-23 04:56 UTC. Time now 2018-Jan-24 12:06 UTC.
Position N 39°57' E 018°33'.

Length 140 m; draft 4.6 m.

MMSI: 215695000.

Date/timePositionNaut miles runAvg speedWind from/ knotsBaromVisibWave heightAir tempDewpointWater temp
2018-Jan-23 04:56N 39°57' E 018°33'3 6.0
2018-Jan-23 04:30N 39°54' E 018°32'4 6.0
2018-Jan-23 03:54N 39°51' E 018°29'37 5.9
2018-Jan-22 21:39N 39°27' E 017°53'141 4.5
2018-Jan-21 14:35N 37°55' E 015°36'1 7.0
2018-Jan-21 14:23N 37°56' E 015°36'3 7.2
2018-Jan-21 13:58N 37°59' E 015°35'3 7.5
2018-Jan-21 13:30N 38°03' E 015°34'4 7.7
2018-Jan-21 12:58N 38°07' E 015°35'3 7.3
2018-Jan-21 12:30N 38°10' E 015°36'4 8.0
2018-Jan-21 12:00N 38°14' E 015°36'5 8.3
2018-Jan-21 11:25N 38°17' E 015°41'3 7.2
2018-Jan-21 11:00N 38°20' E 015°39'4 7.2
2018-Jan-21 10:30N 38°22' E 015°36'3 6.9
2018-Jan-21 10:00N 38°25' E 015°33'4 6.8
2018-Jan-21 09:21N 38°28' E 015°29'2 6.8
2018-Jan-21 08:59N 38°29' E 015°26'4 7.1
2018-Jan-21 08:29N 38°32' E 015°23'4 7.4
2018-Jan-21 07:59N 38°34' E 015°20'4 7.5
2018-Jan-21 07:30N 38°37' E 015°16'  
Track history (hours):
 
Tides and Currents Weather Stations Pressure Air Temp Water Temp Dewpoint Dewpoint Depression Visibility Wind Speed Wind Dir Waves Ship Positions

Palmali Voyager

Last reported at 2018-Jan-23 04:56 UTC. Time now 2018-Jan-24 12:06 UTC.
Position N 39°57' E 018°33'.

Length 140 m; draft 4.6 m.

MMSI: 215695000.

Date/timePositionNaut miles runAvg speedWind from/ knotsBaromVisibWave heightAir tempDewpointWater temp
2018-Jan-23 04:56N 39°57' E 018°33'3 6.0
2018-Jan-23 04:30N 39°54' E 018°32'4 6.0
2018-Jan-23 03:54N 39°51' E 018°29'37 5.9
2018-Jan-22 21:39N 39°27' E 017°53'141 4.5
2018-Jan-21 14:35N 37°55' E 015°36'1 7.0
2018-Jan-21 14:23N 37°56' E 015°36'3 7.2
2018-Jan-21 13:58N 37°59' E 015°35'3 7.5
2018-Jan-21 13:30N 38°03' E 015°34'4 7.7
2018-Jan-21 12:58N 38°07' E 015°35'3 7.3
2018-Jan-21 12:30N 38°10' E 015°36'4 8.0
2018-Jan-21 12:00N 38°14' E 015°36'5 8.3
2018-Jan-21 11:25N 38°17' E 015°41'3 7.2
2018-Jan-21 11:00N 38°20' E 015°39'4 7.2
2018-Jan-21 10:30N 38°22' E 015°36'3 6.9
2018-Jan-21 10:00N 38°25' E 015°33'4 6.8
2018-Jan-21 09:21N 38°28' E 015°29'2 6.8
2018-Jan-21 08:59N 38°29' E 015°26'4 7.1
2018-Jan-21 08:29N 38°32' E 015°23'4 7.4
2018-Jan-21 07:59N 38°34' E 015°20'4 7.5
2018-Jan-21 07:30N 38°37' E 015°16'  

Dump ship's entire track history